Time;durP1;ratioP1;P1;durP2;ratioP2;P2;SDS_P1;SDS_P2;PMS_P1;PMS_P2;Temp;Humidity;BMP_temperature;BMP_pressure;BME280_temperature;BME280_humidity;BME280_pressure;Samples;Min_cycle;Max_cycle;Signal;HPM_P1;HPM_P2
2023/10/26 00:00:27;;;;;;;7.55;2.50;;;;;;;;;;5051353;28;20025;-72
2023/10/26 00:02:53;;;;;;;7.20;2.25;;;;;;;;;;5052173;28;20025;-72
2023/10/26 00:05:19;;;;;;;5.90;1.85;;;;;;;;;;5052128;28;20028;-71
2023/10/26 00:07:45;;;;;;;5.38;1.58;;;;;;;;;;5051739;28;20032;-72
2023/10/26 00:10:12;;;;;;;8.35;2.00;;;;;;;;;;5051877;28;20431;-72
2023/10/26 00:12:38;;;;;;;9.32;2.40;;;;;;;;;;5052371;28;20029;-72
2023/10/26 00:15:05;;;;;;;9.48;2.00;;;;;;;;;;5052450;28;20031;-72
2023/10/26 00:17:31;;;;;;;8.27;2.70;;;;;;;;;;5052340;28;20028;-72
2023/10/26 00:19:57;;;;;;;5.57;2.50;;;;;;;;;;5051773;28;20021;-72
2023/10/26 00:22:24;;;;;;;5.97;2.40;;;;;;;;;;5051952;28;20098;-72
2023/10/26 00:24:51;;;;;;;7.63;2.80;;;;;;;;;;5052213;28;20031;-72
2023/10/26 00:27:20;;;;;;;8.25;2.85;;;;;;;;;;5052001;28;20021;-72
2023/10/26 00:29:47;;;;;;;8.60;2.58;;;;;;;;;;5051588;28;20028;-72
2023/10/26 00:32:13;;;;;;;5.65;1.92;;;;;;;;;;5053339;28;20021;-72
2023/10/26 00:34:40;;;;;;;6.65;2.53;;;;;;;;;;5055486;28;20309;-72
2023/10/26 00:37:06;;;;;;;5.47;1.85;;;;;;;;;;5055790;28;20028;-72
2023/10/26 00:39:33;;;;;;;7.95;2.08;;;;;;;;;;5055523;28;20474;-72
2023/10/26 00:41:59;;;;;;;11.02;2.17;;;;;;;;;;5055666;28;20033;-72
2023/10/26 00:44:26;;;;;;;6.28;1.98;;;;;;;;;;5055425;28;20021;-71
2023/10/26 00:46:53;;;;;;;6.82;2.20;;;;;;;;;;5055611;28;20029;-72
2023/10/26 00:49:20;;;;;;;4.35;2.20;;;;;;;;;;5055240;28;20013;-71
2023/10/26 00:51:48;;;;;;;5.53;2.20;;;;;;;;;;5055235;28;20045;-71
2023/10/26 00:54:16;;;;;;;9.07;2.13;;;;;;;;;;5055148;28;20393;-71
2023/10/26 00:56:42;;;;;;;9.05;2.38;;;;;;;;;;5055143;28;20028;-72
2023/10/26 00:59:09;;;;;;;5.78;2.30;;;;;;;;;;5054897;28;20044;-71
2023/10/26 01:01:36;;;;;;;5.30;1.90;;;;;;;;;;5055118;28;20025;-72
2023/10/26 01:04:02;;;;;;;4.97;1.88;;;;;;;;;;5054981;28;20021;-71
2023/10/26 01:06:29;;;;;;;8.93;2.20;;;;;;;;;;5055232;28;20081;-71
2023/10/26 01:08:55;;;;;;;7.90;2.97;;;;;;;;;;5054994;28;20021;-71
2023/10/26 01:11:22;;;;;;;8.05;2.10;;;;;;;;;;5054855;28;20041;-72
2023/10/26 01:13:48;;;;;;;14.85;2.35;;;;;;;;;;5054832;28;20032;-72
2023/10/26 01:16:15;;;;;;;6.07;1.95;;;;;;;;;;5054784;28;20035;-72
2023/10/26 01:18:41;;;;;;;8.85;2.63;;;;;;;;;;5054445;28;20021;-71
2023/10/26 01:21:09;;;;;;;8.77;2.72;;;;;;;;;;5054744;28;20416;-71
2023/10/26 01:23:36;;;;;;;9.52;2.30;;;;;;;;;;5054648;28;20027;-72
2023/10/26 01:26:02;;;;;;;4.82;2.03;;;;;;;;;;5054701;28;20263;-72
2023/10/26 01:28:29;;;;;;;7.30;2.05;;;;;;;;;;5054445;28;20381;-72
2023/10/26 01:30:55;;;;;;;8.05;2.58;;;;;;;;;;5054592;28;20044;-71
2023/10/26 01:33:21;;;;;;;7.65;2.10;;;;;;;;;;5054217;28;20401;-71
2023/10/26 01:35:48;;;;;;;9.52;2.13;;;;;;;;;;5054330;28;20436;-71
2023/10/26 01:38:14;;;;;;;11.65;2.45;;;;;;;;;;5054315;28;20025;-71
2023/10/26 01:40:41;;;;;;;8.32;2.88;;;;;;;;;;5054409;28;20381;-71
2023/10/26 01:43:07;;;;;;;7.03;2.65;;;;;;;;;;5054049;28;20405;-72
2023/10/26 01:45:34;;;;;;;10.35;3.15;;;;;;;;;;5053814;28;20401;-71
2023/10/26 01:48:02;;;;;;;12.15;2.30;;;;;;;;;;5054102;28;20036;-71
2023/10/26 01:50:29;;;;;;;8.15;2.85;;;;;;;;;;5052872;28;20033;-71
2023/10/26 01:52:56;;;;;;;11.57;3.20;;;;;;;;;;5054193;28;20025;-71
2023/10/26 01:55:22;;;;;;;8.68;2.85;;;;;;;;;;5054041;28;20025;-71
2023/10/26 01:57:48;;;;;;;7.80;2.70;;;;;;;;;;5053737;28;20060;-71
2023/10/26 02:00:15;;;;;;;9.02;3.33;;;;;;;;;;5054332;28;20029;-71
2023/10/26 02:02:41;;;;;;;9.65;2.63;;;;;;;;;;5054019;28;20055;-71
2023/10/26 02:05:08;;;;;;;10.70;2.90;;;;;;;;;;5053917;28;20029;-71
2023/10/26 02:07:34;;;;;;;7.00;2.60;;;;;;;;;;5053817;28;20017;-72
2023/10/26 02:10:01;;;;;;;5.68;2.20;;;;;;;;;;5053725;28;20031;-71
2023/10/26 02:12:27;;;;;;;12.57;2.70;;;;;;;;;;5053795;28;20032;-71
2023/10/26 02:14:53;;;;;;;6.40;2.63;;;;;;;;;;5053024;28;20027;-71
2023/10/26 02:17:20;;;;;;;7.20;2.58;;;;;;;;;;5053496;28;20379;-71
2023/10/26 02:19:46;;;;;;;7.78;2.72;;;;;;;;;;5052298;28;20021;-72
2023/10/26 02:22:14;;;;;;;7.13;2.28;;;;;;;;;;5053563;28;20027;-71
2023/10/26 02:24:43;;;;;;;11.63;3.38;;;;;;;;;;5053566;28;20489;-71
2023/10/26 02:27:11;;;;;;;12.85;2.97;;;;;;;;;;5053754;28;20025;-71
2023/10/26 02:29:37;;;;;;;10.77;2.92;;;;;;;;;;5052017;28;20031;-72
2023/10/26 02:32:03;;;;;;;9.02;3.30;;;;;;;;;;5052985;28;20036;-71
2023/10/26 02:34:30;;;;;;;10.15;3.20;;;;;;;;;;5053237;28;20496;-72
2023/10/26 02:36:57;;;;;;;11.25;3.88;;;;;;;;;;5053271;28;20021;-71
2023/10/26 02:39:24;;;;;;;7.93;3.60;;;;;;;;;;5053460;28;20043;-71
2023/10/26 02:41:50;;;;;;;10.77;3.30;;;;;;;;;;5053189;28;20028;-71
2023/10/26 02:44:17;;;;;;;10.93;3.60;;;;;;;;;;5053435;28;20021;-71
2023/10/26 02:46:43;;;;;;;10.38;3.38;;;;;;;;;;5053007;28;20385;-71
2023/10/26 02:49:09;;;;;;;9.40;3.30;;;;;;;;;;5053333;28;20037;-72
2023/10/26 02:51:35;;;;;;;10.60;4.07;;;;;;;;;;5052938;28;20037;-71
2023/10/26 02:54:02;;;;;;;7.45;3.38;;;;;;;;;;5053067;28;20025;-71
2023/10/26 02:56:28;;;;;;;8.52;3.10;;;;;;;;;;5051049;28;20025;-71
2023/10/26 02:58:54;;;;;;;6.45;3.05;;;;;;;;;;5052763;28;20053;-71
2023/10/26 03:01:21;;;;;;;9.52;3.60;;;;;;;;;;5051533;28;20033;-71
2023/10/26 03:03:47;;;;;;;8.77;3.72;;;;;;;;;;5053148;28;20028;-71
2023/10/26 03:06:13;;;;;;;8.18;3.28;;;;;;;;;;5052811;28;20021;-71
2023/10/26 03:08:39;;;;;;;9.82;3.38;;;;;;;;;;5052677;28;20027;-71
2023/10/26 03:11:06;;;;;;;7.70;3.20;;;;;;;;;;5052579;28;20037;-71
2023/10/26 03:13:32;;;;;;;5.97;2.78;;;;;;;;;;5052671;28;20051;-71
2023/10/26 03:15:59;;;;;;;8.65;3.00;;;;;;;;;;5052561;28;20393;-71
2023/10/26 03:18:25;;;;;;;6.63;2.67;;;;;;;;;;5052853;28;20039;-71
2023/10/26 03:20:51;;;;;;;7.15;3.22;;;;;;;;;;5052673;28;20031;-71
2023/10/26 03:23:17;;;;;;;6.88;3.00;;;;;;;;;;5052658;28;20020;-71
2023/10/26 03:25:44;;;;;;;8.40;3.03;;;;;;;;;;5052736;28;20033;-72
2023/10/26 03:28:10;;;;;;;6.07;2.95;;;;;;;;;;5052812;28;20025;-71
2023/10/26 03:30:37;;;;;;;6.10;2.90;;;;;;;;;;5052140;28;20041;-71
2023/10/26 03:33:03;;;;;;;5.88;2.70;;;;;;;;;;5052495;28;20610;-71
2023/10/26 03:35:29;;;;;;;10.65;2.85;;;;;;;;;;5051393;28;20033;-71
2023/10/26 03:37:56;;;;;;;8.95;2.60;;;;;;;;;;5052464;28;20021;-71
2023/10/26 03:40:22;;;;;;;6.40;2.50;;;;;;;;;;5052443;28;20017;-72
2023/10/26 03:42:48;;;;;;;10.95;2.70;;;;;;;;;;5052587;28;20428;-71
2023/10/26 03:45:14;;;;;;;6.78;2.30;;;;;;;;;;5052318;28;20029;-71
2023/10/26 03:47:41;;;;;;;7.32;2.40;;;;;;;;;;5052201;28;20021;-72
2023/10/26 03:50:07;;;;;;;6.85;2.53;;;;;;;;;;5052254;28;20102;-71
2023/10/26 03:52:34;;;;;;;4.07;2.38;;;;;;;;;;5051110;28;20040;-71
2023/10/26 03:55:01;;;;;;;5.75;2.85;;;;;;;;;;5052533;28;20047;-71
2023/10/26 03:57:27;;;;;;;3.65;2.25;;;;;;;;;;5051693;28;20035;-70
2023/10/26 03:59:53;;;;;;;7.97;2.65;;;;;;;;;;5052228;28;20033;-71
2023/10/26 04:02:20;;;;;;;6.47;2.33;;;;;;;;;;5052709;28;20039;-71
2023/10/26 04:04:49;;;;;;;6.30;2.47;;;;;;;;;;5052124;28;20470;-71
2023/10/26 04:07:16;;;;;;;6.07;2.65;;;;;;;;;;5053669;28;20074;-71
2023/10/26 04:09:42;;;;;;;4.20;2.92;;;;;;;;;;5054922;28;20027;-72
2023/10/26 04:12:08;;;;;;;15.25;3.42;;;;;;;;;;5055637;28;20037;-72
2023/10/26 04:14:35;;;;;;;7.82;3.00;;;;;;;;;;5056229;28;20033;-71
2023/10/26 04:17:01;;;;;;;6.80;3.42;;;;;;;;;;5056382;28;20033;-71
2023/10/26 04:19:27;;;;;;;6.13;3.40;;;;;;;;;;5055810;28;20494;-71
2023/10/26 04:21:54;;;;;;;8.57;3.92;;;;;;;;;;5055807;28;20044;-71
2023/10/26 04:24:20;;;;;;;7.15;3.47;;;;;;;;;;5055746;28;20029;-71
2023/10/26 04:26:46;;;;;;;10.82;3.30;;;;;;;;;;5055365;28;20025;-71
2023/10/26 04:29:13;;;;;;;8.80;3.65;;;;;;;;;;5055636;28;20439;-71
2023/10/26 04:31:39;;;;;;;10.20;5.50;;;;;;;;;;5055582;28;20048;-71
2023/10/26 04:34:05;;;;;;;12.90;5.80;;;;;;;;;;5055486;28;20366;-72
2023/10/26 04:36:32;;;;;;;8.18;5.93;;;;;;;;;;5056174;28;20017;-71
2023/10/26 04:38:58;;;;;;;11.30;6.03;;;;;;;;;;5055419;28;20020;-71
2023/10/26 04:41:26;;;;;;;10.02;4.72;;;;;;;;;;5055466;28;20025;-71
2023/10/26 04:43:52;;;;;;;8.45;4.85;;;;;;;;;;5055392;28;20447;-71
2023/10/26 04:46:18;;;;;;;7.50;4.22;;;;;;;;;;5055310;28;20073;-71
2023/10/26 04:48:45;;;;;;;5.68;3.78;;;;;;;;;;5055378;28;20017;-71
2023/10/26 04:51:11;;;;;;;6.03;3.95;;;;;;;;;;5055207;28;20494;-71
2023/10/26 04:53:37;;;;;;;6.70;3.97;;;;;;;;;;5055569;28;20021;-72
2023/10/26 04:56:04;;;;;;;9.30;4.40;;;;;;;;;;5054939;28;20025;-71
2023/10/26 04:58:30;;;;;;;10.25;3.50;;;;;;;;;;5054909;28;20498;-71
2023/10/26 05:00:56;;;;;;;6.05;3.60;;;;;;;;;;5055230;28;20388;-71
2023/10/26 05:03:22;;;;;;;7.93;3.83;;;;;;;;;;5054141;28;20020;-71
2023/10/26 05:05:49;;;;;;;6.88;3.70;;;;;;;;;;5055059;28;20074;-71
2023/10/26 05:08:15;;;;;;;6.38;3.70;;;;;;;;;;5054912;28;20397;-71
2023/10/26 05:10:41;;;;;;;8.45;3.42;;;;;;;;;;5054389;28;20029;-71
2023/10/26 05:13:10;;;;;;;7.15;3.50;;;;;;;;;;5055142;28;20051;-71
2023/10/26 05:15:36;;;;;;;5.13;3.40;;;;;;;;;;5055173;28;20021;-71
2023/10/26 05:18:03;;;;;;;5.95;3.45;;;;;;;;;;5054345;28;20017;-71
2023/10/26 05:20:33;;;;;;;7.80;3.60;;;;;;;;;;5053090;28;20021;-71
2023/10/26 05:23:02;;;;;;;6.18;3.30;;;;;;;;;;5055021;28;20071;-71
2023/10/26 05:25:29;;;;;;;8.82;3.60;;;;;;;;;;5054278;28;20063;-71
2023/10/26 05:27:55;;;;;;;7.13;3.45;;;;;;;;;;5054556;28;20026;-71
2023/10/26 05:30:22;;;;;;;5.85;4.10;;;;;;;;;;5054551;28;20031;-71
2023/10/26 05:32:48;;;;;;;10.93;4.50;;;;;;;;;;5054519;28;20033;-71
2023/10/26 05:35:14;;;;;;;9.43;4.50;;;;;;;;;;5054720;28;20052;-71
2023/10/26 05:37:41;;;;;;;12.40;5.68;;;;;;;;;;5053447;28;20035;-71
2023/10/26 05:40:08;;;;;;;9.05;5.65;;;;;;;;;;5054103;28;20027;-72
2023/10/26 05:42:35;;;;;;;9.30;5.55;;;;;;;;;;5054649;28;20036;-71
2023/10/26 05:45:02;;;;;;;9.90;5.85;;;;;;;;;;5054288;28;20063;-72
2023/10/26 05:47:29;;;;;;;17.08;6.72;;;;;;;;;;5054129;28;20423;-71
2023/10/26 05:49:55;;;;;;;10.85;6.35;;;;;;;;;;5054144;28;20025;-71
2023/10/26 05:52:21;;;;;;;14.27;6.82;;;;;;;;;;5054368;28;20028;-71
2023/10/26 05:54:47;;;;;;;15.60;6.72;;;;;;;;;;5053867;28;20021;-71
2023/10/26 05:57:14;;;;;;;13.93;7.75;;;;;;;;;;5054025;28;20025;-71
2023/10/26 05:59:40;;;;;;;11.63;7.32;;;;;;;;;;5053764;28;20055;-71
2023/10/26 06:02:07;;;;;;;13.43;7.50;;;;;;;;;;5052949;28;20033;-71
2023/10/26 06:04:33;;;;;;;12.00;7.22;;;;;;;;;;5053877;28;20401;-71
2023/10/26 06:07:01;;;;;;;15.18;8.52;;;;;;;;;;5053922;28;20024;-71
2023/10/26 06:09:27;;;;;;;16.13;8.93;;;;;;;;;;5053392;28;20023;-71
2023/10/26 06:11:53;;;;;;;12.18;8.40;;;;;;;;;;5051113;28;20094;-72
2023/10/26 06:14:20;;;;;;;15.07;8.43;;;;;;;;;;5043615;28;20021;-72
2023/10/26 06:16:46;;;;;;;14.93;9.35;;;;;;;;;;5043337;28;20037;-72
2023/10/26 06:19:13;;;;;;;15.85;10.88;;;;;;;;;;5049542;28;20017;-69
2023/10/26 06:21:40;;;;;;;23.50;12.23;;;;;;;;;;5052886;28;20099;-70
2023/10/26 06:24:07;;;;;;;24.27;14.35;;;;;;;;;;5051243;28;20021;-71
2023/10/26 06:26:33;;;;;;;41.67;29.25;;;;;;;;;;5054760;28;20038;-71
2023/10/26 06:28:59;;;;;;;24.38;16.55;;;;;;;;;;5045874;28;20029;-71
2023/10/26 06:31:26;;;;;;;17.10;12.88;;;;;;;;;;5049792;28;20035;-71
2023/10/26 06:33:52;;;;;;;16.75;12.55;;;;;;;;;;5051291;28;20025;-71
2023/10/26 06:36:18;;;;;;;19.27;12.35;;;;;;;;;;5052608;28;20497;-71
2023/10/26 06:38:45;;;;;;;21.73;17.42;;;;;;;;;;5052542;28;20028;-71
2023/10/26 06:41:11;;;;;;;21.48;12.38;;;;;;;;;;5052598;28;20021;-71
2023/10/26 06:43:38;;;;;;;22.85;14.48;;;;;;;;;;5040023;28;20030;-71
2023/10/26 06:46:04;;;;;;;19.13;13.63;;;;;;;;;;5044189;28;20037;-70
2023/10/26 06:48:31;;;;;;;20.38;11.98;;;;;;;;;;5050707;28;20078;-70
2023/10/26 06:50:58;;;;;;;16.40;9.75;;;;;;;;;;5052555;28;20036;-71
2023/10/26 06:53:25;;;;;;;12.60;8.98;;;;;;;;;;5052141;28;20466;-70
2023/10/26 06:55:51;;;;;;;11.75;7.88;;;;;;;;;;5052525;28;20043;-71
2023/10/26 06:58:18;;;;;;;13.88;7.38;;;;;;;;;;5051197;28;20049;-70
2023/10/26 07:00:45;;;;;;;12.38;7.70;;;;;;;;;;5052033;28;20023;-71
2023/10/26 07:03:11;;;;;;;15.82;10.20;;;;;;;;;;5050389;28;20028;-72
2023/10/26 07:05:37;;;;;;;12.27;9.48;;;;;;;;;;5049381;28;20025;-70
2023/10/26 07:08:04;;;;;;;21.00;11.13;;;;;;;;;;5051212;28;20021;-71
2023/10/26 07:10:31;;;;;;;16.15;10.20;;;;;;;;;;5050092;28;20033;-71
2023/10/26 07:12:57;;;;;;;18.63;9.05;;;;;;;;;;5051244;28;20486;-71
2023/10/26 07:15:24;;;;;;;11.32;8.02;;;;;;;;;;5062019;28;20025;-72
2023/10/26 07:17:50;;;;;;;14.05;9.13;;;;;;;;;;5057611;28;20432;-70
2023/10/26 07:20:17;;;;;;;13.30;8.15;;;;;;;;;;5051804;28;20025;-71
2023/10/26 07:22:44;;;;;;;13.90;8.15;;;;;;;;;;5051458;28;20074;-71
2023/10/26 07:25:10;;;;;;;12.30;7.40;;;;;;;;;;5051523;28;20132;-71
2023/10/26 07:27:38;;;;;;;11.75;6.97;;;;;;;;;;5050923;28;20035;-71
2023/10/26 07:30:05;;;;;;;22.75;11.27;;;;;;;;;;5050222;28;20032;-70
2023/10/26 07:32:32;;;;;;;18.75;8.23;;;;;;;;;;5052235;28;20024;-70
2023/10/26 07:35:01;;;;;;;18.10;7.72;;;;;;;;;;5042595;28;20097;-70
2023/10/26 07:37:28;;;;;;;12.38;7.70;;;;;;;;;;5051018;28;20477;-68
2023/10/26 07:39:54;;;;;;;16.23;7.57;;;;;;;;;;5051278;28;20050;-69
2023/10/26 07:42:20;;;;;;;12.13;5.95;;;;;;;;;;5035538;28;20376;-69
2023/10/26 07:44:47;;;;;;;14.75;7.38;;;;;;;;;;5045892;28;20032;-70
2023/10/26 07:47:13;;;;;;;88.60;43.97;;;;;;;;;;5055535;28;20031;-70
2023/10/26 07:49:39;;;;;;;50.78;25.25;;;;;;;;;;5054628;28;20055;-70
2023/10/26 07:52:05;;;;;;;10.88;7.53;;;;;;;;;;5055187;28;20052;-70
2023/10/26 07:54:32;;;;;;;11.45;6.75;;;;;;;;;;5054082;28;20025;-69
2023/10/26 07:56:58;;;;;;;15.77;5.68;;;;;;;;;;5053951;28;20419;-69
2023/10/26 07:59:24;;;;;;;14.45;8.77;;;;;;;;;;5052799;28;20053;-69
2023/10/26 08:01:51;;;;;;;15.75;7.80;;;;;;;;;;5054546;28;20035;-70
2023/10/26 08:04:18;;;;;;;27.65;13.63;;;;;;;;;;5045357;28;20030;-71
2023/10/26 08:06:44;;;;;;;38.63;20.55;;;;;;;;;;5053695;28;20532;-69
2023/10/26 08:09:10;;;;;;;35.95;17.60;;;;;;;;;;5051887;28;20062;-68
2023/10/26 08:11:37;;;;;;;11.57;6.57;;;;;;;;;;5052851;28;20041;-70
2023/10/26 08:14:04;;;;;;;11.15;5.05;;;;;;;;;;5046725;28;20025;-70
2023/10/26 08:16:30;;;;;;;11.70;6.88;;;;;;;;;;5052600;28;20025;-70
2023/10/26 08:18:56;;;;;;;24.15;14.23;;;;;;;;;;5050948;28;20024;-70
2023/10/26 08:21:23;;;;;;;19.27;13.55;;;;;;;;;;5052624;28;20025;-71
2023/10/26 08:23:49;;;;;;;5.65;3.90;;;;;;;;;;5054269;28;20029;-71
2023/10/26 08:26:16;;;;;;;8.23;5.30;;;;;;;;;;5054392;28;20029;-70
2023/10/26 08:28:42;;;;;;;7.85;5.30;;;;;;;;;;5054206;28;20013;-71
2023/10/26 08:31:08;;;;;;;7.78;4.97;;;;;;;;;;5054272;28;20048;-70
2023/10/26 08:33:34;;;;;;;5.85;3.38;;;;;;;;;;5034586;28;20039;-71
2023/10/26 08:36:02;;;;;;;8.38;4.68;;;;;;;;;;5027803;28;20032;-71
2023/10/26 08:38:28;;;;;;;5.35;3.92;;;;;;;;;;5054005;28;20381;-70
2023/10/26 08:40:55;;;;;;;11.07;3.75;;;;;;;;;;5054416;28;20031;-71
2023/10/26 08:43:23;;;;;;;4.93;3.10;;;;;;;;;;5052662;28;20467;-70
2023/10/26 08:45:51;;;;;;;5.95;3.10;;;;;;;;;;5052421;28;20039;-69
2023/10/26 08:48:18;;;;;;;8.63;4.20;;;;;;;;;;5052534;28;20029;-71
2023/10/26 08:50:45;;;;;;;6.60;2.88;;;;;;;;;;5048637;28;20029;-69
2023/10/26 08:53:12;;;;;;;8.52;4.80;;;;;;;;;;5051363;28;20041;-70
2023/10/26 08:55:39;;;;;;;6.28;3.47;;;;;;;;;;5053030;28;20025;-70
2023/10/26 08:58:06;;;;;;;4.95;2.55;;;;;;;;;;5053568;28;20037;-69
2023/10/26 09:00:33;;;;;;;5.90;3.15;;;;;;;;;;5054062;28;20036;-69
2023/10/26 09:02:59;;;;;;;6.95;4.10;;;;;;;;;;5053247;28;20432;-71
2023/10/26 09:05:27;;;;;;;6.80;2.83;;;;;;;;;;5053939;28;20041;-68
2023/10/26 09:07:53;;;;;;;6.57;3.50;;;;;;;;;;5054528;28;20036;-71
2023/10/26 09:10:29;;;;;;;5.53;3.47;;;;;;;;;;5046170;28;20029;-70
2023/10/26 09:13:04;;;;;;;6.95;3.20;;;;;;;;;;5050602;28;20397;-69
2023/10/26 09:15:30;;;;;;;6.13;2.80;;;;;;;;;;5053404;28;20024;-70
2023/10/26 09:17:57;;;;;;;3.40;1.70;;;;;;;;;;5052996;28;20029;-69
2023/10/26 09:20:24;;;;;;;5.95;1.98;;;;;;;;;;5056402;28;20019;-71
2023/10/26 09:22:51;;;;;;;6.50;2.17;;;;;;;;;;5062949;28;20417;-70
2023/10/26 09:25:18;;;;;;;5.75;2.20;;;;;;;;;;5052948;28;20035;-69
2023/10/26 09:27:45;;;;;;;5.00;2.25;;;;;;;;;;5053019;28;20028;-70
2023/10/26 09:30:33;;;;;;;43.63;12.98;;;;;;;;;;5034925;28;20398;-71
2023/10/26 09:33:00;;;;;;;12.70;5.18;;;;;;;;;;5048751;28;20025;-71
2023/10/26 09:35:30;;;;;;;12.88;4.75;;;;;;;;;;5038328;28;20106;-69
2023/10/26 09:37:57;;;;;;;5.47;2.22;;;;;;;;;;5038702;28;20032;-70
2023/10/26 09:40:24;;;;;;;6.35;2.58;;;;;;;;;;5043802;28;20071;-70
2023/10/26 09:42:51;;;;;;;5.70;2.50;;;;;;;;;;5033675;28;20026;-71
2023/10/26 09:45:18;;;;;;;7.55;3.75;;;;;;;;;;5051465;28;20029;-69
2023/10/26 09:47:45;;;;;;;7.78;4.03;;;;;;;;;;5052655;28;20032;-70
2023/10/26 09:50:11;;;;;;;9.93;3.70;;;;;;;;;;5052676;28;20494;-69
2023/10/26 09:52:38;;;;;;;6.38;3.30;;;;;;;;;;5052631;28;20037;-70
2023/10/26 09:55:07;;;;;;;7.88;3.50;;;;;;;;;;5052984;28;20028;-69
2023/10/26 09:57:40;;;;;;;17.60;7.63;;;;;;;;;;5041908;28;20401;-70
2023/10/26 10:00:13;;;;;;;24.88;9.52;;;;;;;;;;5049874;28;20036;-69
2023/10/26 10:02:40;;;;;;;16.13;6.07;;;;;;;;;;5046114;28;20017;-70
2023/10/26 10:05:06;;;;;;;3.00;1.35;;;;;;;;;;5047516;28;20029;-71
2023/10/26 10:07:43;;;;;;;4.18;1.40;;;;;;;;;;5052581;28;20021;-71
2023/10/26 10:10:13;;;;;;;3.83;1.23;;;;;;;;;;5052680;28;20074;-71
2023/10/26 10:12:40;;;;;;;3.05;1.13;;;;;;;;;;5052334;28;20029;-71
2023/10/26 10:15:08;;;;;;;6.80;1.83;;;;;;;;;;5051745;28;20025;-71
2023/10/26 10:17:43;;;;;;;10.77;3.75;;;;;;;;;;5052110;28;20111;-70
2023/10/26 10:20:19;;;;;;;12.82;5.78;;;;;;;;;;5052754;28;20025;-71
2023/10/26 10:22:48;;;;;;;6.50;3.03;;;;;;;;;;5052743;28;20029;-71
2023/10/26 10:25:16;;;;;;;8.80;2.35;;;;;;;;;;5052669;28;20024;-70
2023/10/26 10:27:48;;;;;;;9.48;3.78;;;;;;;;;;5052291;28;20050;-71
2023/10/26 10:30:16;;;;;;;5.32;2.30;;;;;;;;;;5051909;28;20047;-71
2023/10/26 10:32:48;;;;;;;4.68;2.35;;;;;;;;;;5052477;28;20029;-71
2023/10/26 10:35:29;;;;;;;11.82;3.20;;;;;;;;;;5052370;28;20025;-71
2023/10/26 10:38:15;;;;;;;8.27;3.65;;;;;;;;;;5052509;28;20029;-71
2023/10/26 10:41:01;;;;;;;14.85;5.97;;;;;;;;;;5052469;28;20482;-71
2023/10/26 10:43:31;;;;;;;14.20;5.10;;;;;;;;;;5052023;28;20029;-70
2023/10/26 10:46:09;;;;;;;15.37;4.03;;;;;;;;;;5052122;28;20383;-71
2023/10/26 10:48:36;;;;;;;5.25;2.35;;;;;;;;;;5052222;28;20075;-71
2023/10/26 10:51:02;;;;;;;8.60;2.85;;;;;;;;;;5052523;28;20047;-71
2023/10/26 10:53:31;;;;;;;5.57;2.08;;;;;;;;;;5052263;28;20025;-70
2023/10/26 10:55:58;;;;;;;4.88;2.08;;;;;;;;;;5052085;28;20036;-71
2023/10/26 10:58:24;;;;;;;6.43;2.33;;;;;;;;;;5051531;28;20041;-71
2023/10/26 11:00:51;;;;;;;13.13;2.78;;;;;;;;;;5052215;28;20025;-71
2023/10/26 11:03:18;;;;;;;7.88;3.60;;;;;;;;;;5051841;28;20029;-71
2023/10/26 11:05:44;;;;;;;8.52;2.78;;;;;;;;;;5051993;28;20508;-71
2023/10/26 11:08:11;;;;;;;5.20;2.05;;;;;;;;;;5050808;28;20103;-71
2023/10/26 11:10:38;;;;;;;2.65;1.35;;;;;;;;;;5051618;28;20031;-71
2023/10/26 11:13:05;;;;;;;4.10;1.90;;;;;;;;;;5051779;28;20033;-71
2023/10/26 11:15:35;;;;;;;3.13;1.52;;;;;;;;;;5051846;28;20507;-71
2023/10/26 11:18:01;;;;;;;9.18;2.78;;;;;;;;;;5050119;28;20039;-71
2023/10/26 11:20:34;;;;;;;7.32;3.22;;;;;;;;;;5050875;28;20033;-71
2023/10/26 11:23:01;;;;;;;11.45;5.45;;;;;;;;;;5051748;28;20023;-71
2023/10/26 11:25:27;;;;;;;15.23;8.25;;;;;;;;;;5051792;28;20024;-71
2023/10/26 11:27:54;;;;;;;10.25;4.80;;;;;;;;;;5051200;28;20017;-71
2023/10/26 11:30:20;;;;;;;11.25;5.05;;;;;;;;;;5049345;28;20025;-71
2023/10/26 11:32:46;;;;;;;10.63;5.97;;;;;;;;;;5053407;28;20029;-70
2023/10/26 11:35:13;;;;;;;8.32;4.25;;;;;;;;;;5051823;28;20028;-71
2023/10/26 11:37:41;;;;;;;6.55;3.25;;;;;;;;;;5051528;28;20031;-71
2023/10/26 11:40:09;;;;;;;6.35;3.35;;;;;;;;;;5051818;28;20029;-71
2023/10/26 11:42:49;;;;;;;6.03;2.67;;;;;;;;;;5049670;28;20036;-71
2023/10/26 11:45:22;;;;;;;8.00;3.75;;;;;;;;;;5046709;28;20029;-71
2023/10/26 11:47:50;;;;;;;4.55;2.95;;;;;;;;;;5044684;28;20372;-71
2023/10/26 11:50:20;;;;;;;7.32;3.08;;;;;;;;;;5045901;28;20024;-69
2023/10/26 11:52:46;;;;;;;2.90;1.40;;;;;;;;;;5051048;28;20412;-70
2023/10/26 11:55:14;;;;;;;2.15;1.20;;;;;;;;;;5051249;28;20025;-70
2023/10/26 11:57:41;;;;;;;3.78;1.13;;;;;;;;;;5043087;28;20032;-70
2023/10/26 12:00:08;;;;;;;1.52;1.00;;;;;;;;;;5050195;28;20021;-71
2023/10/26 12:02:35;;;;;;;3.47;1.05;;;;;;;;;;5045170;28;20021;-71
2023/10/26 12:05:03;;;;;;;3.53;1.02;;;;;;;;;;5050061;28;20634;-68
2023/10/26 12:07:29;;;;;;;4.70;1.40;;;;;;;;;;5051019;28;20017;-70
2023/10/26 12:09:55;;;;;;;2.20;1.00;;;;;;;;;;5050454;28;20493;-71
2023/10/26 12:12:22;;;;;;;14.95;9.10;;;;;;;;;;5052435;28;20033;-71
2023/10/26 12:14:48;;;;;;;6.40;2.80;;;;;;;;;;5036613;28;20025;-70
2023/10/26 12:17:14;;;;;;;5.35;3.05;;;;;;;;;;5048678;28;20043;-71
2023/10/26 12:19:41;;;;;;;3.85;2.13;;;;;;;;;;5050927;28;20051;-71
2023/10/26 12:22:07;;;;;;;3.92;2.35;;;;;;;;;;5050749;28;20074;-71
2023/10/26 12:24:34;;;;;;;3.55;1.50;;;;;;;;;;5051101;28;20032;-71
2023/10/26 12:27:00;;;;;;;6.55;2.67;;;;;;;;;;5047925;28;20043;-69
2023/10/26 12:29:27;;;;;;;3.03;1.38;;;;;;;;;;5052329;28;20025;-71
2023/10/26 12:31:53;;;;;;;2.97;0.85;;;;;;;;;;5051228;28;20102;-71
2023/10/26 12:34:19;;;;;;;1.77;0.90;;;;;;;;;;5054101;28;20502;-72
2023/10/26 12:36:46;;;;;;;6.38;0.82;;;;;;;;;;5038900;28;20029;-70
2023/10/26 12:39:12;;;;;;;4.95;1.25;;;;;;;;;;5054575;28;20496;-69
2023/10/26 12:41:39;;;;;;;8.80;1.23;;;;;;;;;;5053304;28;20028;-71
2023/10/26 12:44:05;;;;;;;3.40;1.60;;;;;;;;;;5054484;28;20033;-70
2023/10/26 12:46:31;;;;;;;4.13;1.20;;;;;;;;;;5051028;28;20036;-69
2023/10/26 12:48:58;;;;;;;2.63;1.23;;;;;;;;;;5065102;28;20059;-70
2023/10/26 12:51:24;;;;;;;3.03;1.10;;;;;;;;;;5053968;28;20043;-70
2023/10/26 12:53:50;;;;;;;3.85;1.17;;;;;;;;;;5053816;28;20036;-72
2023/10/26 12:56:17;;;;;;;6.45;1.17;;;;;;;;;;5053889;28;20495;-70
2023/10/26 12:58:43;;;;;;;5.03;1.70;;;;;;;;;;5054021;28;20056;-70
2023/10/26 13:01:09;;;;;;;3.67;1.50;;;;;;;;;;5053798;28;20496;-70
2023/10/26 13:03:35;;;;;;;5.13;1.50;;;;;;;;;;5050892;28;20103;-71
2023/10/26 13:06:02;;;;;;;2.90;1.30;;;;;;;;;;5036896;28;20032;-69
2023/10/26 13:08:28;;;;;;;2.00;1.02;;;;;;;;;;5051672;28;20032;-70
2023/10/26 13:10:54;;;;;;;3.15;1.00;;;;;;;;;;5053817;28;20078;-70
2023/10/26 13:13:21;;;;;;;2.78;1.25;;;;;;;;;;5053650;28;20490;-70
2023/10/26 13:15:47;;;;;;;2.53;0.80;;;;;;;;;;5053502;28;20493;-69
2023/10/26 13:18:13;;;;;;;4.03;0.95;;;;;;;;;;5053036;28;20028;-71
2023/10/26 13:20:40;;;;;;;3.63;1.27;;;;;;;;;;5044828;28;20028;-71
2023/10/26 13:23:07;;;;;;;1.88;1.02;;;;;;;;;;5051536;28;20039;-71
2023/10/26 13:25:33;;;;;;;5.30;1.10;;;;;;;;;;5050843;28;20031;-70
2023/10/26 13:28:01;;;;;;;3.17;0.80;;;;;;;;;;5052355;28;20031;-70
2023/10/26 13:30:27;;;;;;;4.40;1.20;;;;;;;;;;5052423;28;20021;-71
2023/10/26 13:32:53;;;;;;;5.57;1.30;;;;;;;;;;5048892;28;20033;-70
2023/10/26 13:35:20;;;;;;;2.63;1.23;;;;;;;;;;5053382;28;20486;-71
2023/10/26 13:37:46;;;;;;;1.67;1.23;;;;;;;;;;5046421;28;20029;-70
2023/10/26 13:40:13;;;;;;;2.63;0.98;;;;;;;;;;5049687;28;20039;-71
2023/10/26 13:42:39;;;;;;;2.53;1.40;;;;;;;;;;5052140;28;20031;-71
2023/10/26 13:45:06;;;;;;;8.30;1.40;;;;;;;;;;5052892;28;20033;-71
2023/10/26 13:47:32;;;;;;;4.15;1.17;;;;;;;;;;5051852;28;20025;-71
2023/10/26 13:49:58;;;;;;;6.43;1.33;;;;;;;;;;5053161;28;20025;-70
2023/10/26 13:52:25;;;;;;;4.63;1.40;;;;;;;;;;5052441;28;20063;-70
2023/10/26 13:54:51;;;;;;;5.25;1.45;;;;;;;;;;5038393;28;20021;-71
2023/10/26 13:57:18;;;;;;;4.63;1.70;;;;;;;;;;5033242;28;20037;-69
2023/10/26 13:59:44;;;;;;;7.07;1.50;;;;;;;;;;5051058;28;20045;-70
2023/10/26 14:02:10;;;;;;;2.97;1.23;;;;;;;;;;5046593;28;20397;-72
2023/10/26 14:04:37;;;;;;;4.10;1.48;;;;;;;;;;5051855;28;20089;-68
2023/10/26 14:07:04;;;;;;;6.30;1.38;;;;;;;;;;5045878;28;20029;-69
2023/10/26 14:09:33;;;;;;;3.17;1.50;;;;;;;;;;5041228;28;20025;-68
2023/10/26 14:12:01;;;;;;;9.05;1.52;;;;;;;;;;5047685;28;20044;-68
2023/10/26 14:14:34;;;;;;;3.30;1.25;;;;;;;;;;5048389;28;20036;-68
2023/10/26 14:17:00;;;;;;;6.68;1.30;;;;;;;;;;5052676;28;20055;-70
2023/10/26 14:19:27;;;;;;;2.75;1.20;;;;;;;;;;5051762;28;20369;-69
2023/10/26 14:21:53;;;;;;;3.83;1.50;;;;;;;;;;5052132;28;20031;-70
2023/10/26 14:24:19;;;;;;;4.68;1.33;;;;;;;;;;5048663;28;20025;-70
2023/10/26 14:26:45;;;;;;;6.15;1.75;;;;;;;;;;5046243;28;20025;-69
2023/10/26 14:29:13;;;;;;;4.18;1.60;;;;;;;;;;5042900;28;20028;-68
2023/10/26 14:31:39;;;;;;;11.18;6.10;;;;;;;;;;5050322;28;20375;-70
2023/10/26 14:34:05;;;;;;;13.05;5.32;;;;;;;;;;5042341;28;20040;-69
2023/10/26 14:36:32;;;;;;;6.88;3.20;;;;;;;;;;5037789;28;20037;-69